Time;durP1;ratioP1;P1;durP2;ratioP2;P2;SDS_P1;SDS_P2;PMS_P1;PMS_P2;Temp;Humidity;BMP_temperature;BMP_pressure;BME280_temperature;BME280_humidity;BME280_pressure;Samples;Min_cycle;Max_cycle;Signal;HPM_P1;HPM_P2
2021/01/24 00:01:31;;;;;;;;;;;2.70;99.90;;;;;;5051947;28;19932;-75
2021/01/24 00:03:57;;;;;;;;;;;2.70;99.90;;;;;;5053110;28;19919;-75
2021/01/24 00:06:23;;;;;;;;;;;2.70;99.90;;;;;;5052236;28;20680;-75
2021/01/24 00:08:48;;;;;;;;;;;2.70;99.90;;;;;;5032348;28;20428;-76
2021/01/24 00:11:14;;;;;;;;;;;2.70;99.90;;;;;;5051559;28;19913;-75
2021/01/24 00:13:40;;;;;;;;;;;2.70;99.90;;;;;;5053036;28;19913;-75
2021/01/24 00:16:06;;;;;;;;;;;2.70;99.90;;;;;;5035344;28;19966;-75
2021/01/24 00:18:32;;;;;;;;;;;2.70;99.90;;;;;;5052578;28;19916;-76
2021/01/24 00:20:58;;;;;;;;;;;2.70;99.90;;;;;;5052052;28;19913;-75
2021/01/24 00:23:24;;;;;;;;;;;2.70;99.90;;;;;;5052299;28;19912;-75
2021/01/24 00:25:50;;;;;;;;;;;2.70;99.90;;;;;;5052890;28;19924;-75
2021/01/24 00:28:21;;;;;;;;;;;2.80;99.90;;;;;;5051823;28;19924;-75
2021/01/24 00:30:47;;;;;;;;;;;2.80;99.90;;;;;;5053033;28;19999;-75
2021/01/24 00:33:13;;;;;;;;;;;2.70;99.90;;;;;;5051688;28;19915;-75
2021/01/24 00:35:39;;;;;;;;;;;2.70;99.90;;;;;;5052181;28;19943;-75
2021/01/24 00:38:05;;;;;;;;;;;2.70;99.90;;;;;;5051962;28;19921;-75
2021/01/24 00:40:31;;;;;;;;;;;2.70;99.90;;;;;;5052517;28;19955;-75
2021/01/24 00:42:57;;;;;;;;;;;2.70;99.90;;;;;;5051363;28;20451;-75
2021/01/24 00:45:23;;;;;;;;;;;2.70;99.90;;;;;;5052387;28;20392;-75
2021/01/24 00:47:49;;;;;;;;;;;2.70;99.90;;;;;;5052526;28;20353;-75
2021/01/24 00:50:15;;;;;;;;;;;2.60;99.90;;;;;;5052544;28;19920;-75
2021/01/24 00:52:40;;;;;;;;;;;2.70;99.90;;;;;;5052039;28;19920;-75
2021/01/24 00:55:07;;;;;;;;;;;2.70;99.90;;;;;;5051547;28;19920;-75
2021/01/24 00:57:33;;;;;;;;;;;2.70;99.90;;;;;;5052330;28;19920;-75
2021/01/24 00:59:59;;;;;;;;;;;2.70;99.90;;;;;;5052515;28;19909;-75
2021/01/24 01:02:25;;;;;;;;;;;2.70;99.90;;;;;;5051887;28;19913;-76
2021/01/24 01:04:51;;;;;;;;;;;2.70;99.90;;;;;;5052247;28;19960;-75
2021/01/24 01:07:17;;;;;;;;;;;2.70;99.90;;;;;;5051939;28;19987;-75
2021/01/24 01:09:43;;;;;;;;;;;2.70;99.90;;;;;;5052233;28;20369;-75
2021/01/24 01:12:09;;;;;;;;;;;2.70;99.90;;;;;;5052170;28;20003;-75
2021/01/24 01:14:35;;;;;;;;;;;2.70;99.90;;;;;;5052250;28;19909;-75
2021/01/24 01:17:00;;;;;;;;;;;2.70;99.90;;;;;;5045577;28;19917;-75
2021/01/24 01:19:26;;;;;;;;;;;2.70;99.90;;;;;;5052271;28;19955;-76
2021/01/24 01:21:52;;;;;;;;;;;2.70;99.90;;;;;;5052798;28;19920;-75
2021/01/24 01:24:18;;;;;;;;;;;2.70;99.90;;;;;;5051248;28;19912;-75
2021/01/24 01:26:44;;;;;;;;;;;2.70;99.90;;;;;;5052102;28;19916;-75
2021/01/24 01:29:10;;;;;;;;;;;2.70;99.90;;;;;;5051734;28;19929;-75
2021/01/24 01:31:36;;;;;;;;;;;2.70;99.90;;;;;;5055846;28;19913;-75
2021/01/24 01:34:02;;;;;;;;;;;2.70;99.90;;;;;;5054903;28;19909;-75
2021/01/24 01:36:28;;;;;;;;;;;2.70;99.90;;;;;;5054829;28;20289;-75
2021/01/24 01:38:54;;;;;;;;;;;2.70;99.90;;;;;;5056125;28;19920;-76
2021/01/24 01:41:20;;;;;;;;;;;2.70;99.90;;;;;;5055088;28;19913;-76
2021/01/24 01:43:46;;;;;;;;;;;2.70;99.90;;;;;;5056099;28;19912;-75
2021/01/24 01:46:13;;;;;;;;;;;2.70;99.90;;;;;;5056059;28;19916;-75
2021/01/24 01:48:39;;;;;;;;;;;2.70;99.90;;;;;;5054273;28;20305;-75
2021/01/24 01:51:05;;;;;;;;;;;2.70;99.90;;;;;;5055502;28;19908;-75
2021/01/24 01:53:31;;;;;;;;;;;2.70;99.90;;;;;;5054418;28;19916;-75
2021/01/24 01:55:57;;;;;;;;;;;2.70;99.90;;;;;;5037231;28;19909;-75
2021/01/24 01:58:23;;;;;;;;;;;2.70;99.90;;;;;;5054464;28;19909;-76
2021/01/24 02:00:49;;;;;;;;;;;2.70;99.90;;;;;;5055720;28;19913;-76
2021/01/24 02:03:34;;;;;;;;;;;2.80;99.90;;;;;;5037502;28;19920;-75
2021/01/24 02:06:26;;;;;;;;;;;2.80;99.90;;;;;;5049297;28;19909;-76
2021/01/24 02:09:05;;;;;;;;;;;2.80;99.90;;;;;;5054468;28;19917;-75
2021/01/24 02:11:45;;;;;;;;;;;2.80;99.90;;;;;;5054109;28;19924;-76
2021/01/24 02:14:14;;;;;;;;;;;2.80;99.90;;;;;;5031611;28;20308;-75
2021/01/24 02:16:40;;;;;;;;;;;2.80;99.90;;;;;;5055139;28;19916;-75
2021/01/24 02:19:06;;;;;;;;;;;2.80;99.90;;;;;;5055184;28;19935;-74
2021/01/24 02:21:33;;;;;;;;;;;2.70;99.90;;;;;;5055089;28;19912;-75
2021/01/24 02:24:00;;;;;;;;;;;2.70;99.90;;;;;;5055248;28;19959;-75
2021/01/24 02:26:29;;;;;;;;;;;2.70;99.90;;;;;;5053630;28;19913;-75
2021/01/24 02:29:04;;;;;;;;;;;2.70;99.90;;;;;;5053907;28;19924;-75
2021/01/24 02:31:30;;;;;;;;;;;2.70;99.90;;;;;;5048015;28;20355;-75
2021/01/24 02:33:56;;;;;;;;;;;2.70;99.90;;;;;;5053714;28;19909;-75
2021/01/24 02:36:22;;;;;;;;;;;2.70;99.90;;;;;;5053378;28;20003;-75
2021/01/24 02:38:48;;;;;;;;;;;2.70;99.90;;;;;;5053687;28;20328;-75
2021/01/24 02:41:14;;;;;;;;;;;2.70;99.90;;;;;;5054503;28;19956;-75
2021/01/24 02:43:44;;;;;;;;;;;2.70;99.90;;;;;;5053483;28;19913;-75
2021/01/24 02:46:10;;;;;;;;;;;2.70;99.90;;;;;;5029544;28;20277;-76
2021/01/24 02:48:36;;;;;;;;;;;2.70;99.90;;;;;;5053174;28;19921;-75
2021/01/24 02:51:02;;;;;;;;;;;2.70;99.90;;;;;;5053313;28;20284;-75
2021/01/24 02:53:30;;;;;;;;;;;2.70;99.90;;;;;;5053534;28;19908;-75
2021/01/24 02:55:56;;;;;;;;;;;2.70;99.90;;;;;;5053394;28;19915;-75
2021/01/24 02:58:21;;;;;;;;;;;2.70;99.90;;;;;;5053424;28;20277;-75
2021/01/24 03:00:47;;;;;;;;;;;2.70;99.90;;;;;;5053742;28;19904;-75
2021/01/24 03:03:13;;;;;;;;;;;2.70;99.90;;;;;;5055164;28;19905;-75
2021/01/24 03:05:39;;;;;;;;;;;2.70;99.90;;;;;;5053108;28;19920;-75
2021/01/24 03:08:05;;;;;;;;;;;2.70;99.90;;;;;;5054462;28;19924;-75
2021/01/24 03:10:31;;;;;;;;;;;2.70;99.90;;;;;;5053265;28;19940;-75
2021/01/24 03:13:05;;;;;;;;;;;2.70;99.90;;;;;;5052738;28;19912;-75
2021/01/24 03:15:31;;;;;;;;;;;2.70;99.90;;;;;;5052619;28;20361;-76
2021/01/24 03:17:56;;;;;;;;;;;2.60;99.90;;;;;;5053119;28;20007;-75
2021/01/24 03:20:23;;;;;;;;;;;2.60;99.90;;;;;;5053180;28;19909;-75
2021/01/24 03:22:49;;;;;;;;;;;2.60;99.90;;;;;;5052626;28;19908;-76
2021/01/24 03:25:15;;;;;;;;;;;2.60;99.90;;;;;;5035779;28;19913;-75
2021/01/24 03:27:41;;;;;;;;;;;2.60;99.90;;;;;;5053805;28;19920;-75
2021/01/24 03:30:07;;;;;;;;;;;2.70;99.90;;;;;;5052929;28;19917;-75
2021/01/24 03:32:33;;;;;;;;;;;2.70;99.90;;;;;;5035234;28;20409;-76
2021/01/24 03:34:59;;;;;;;;;;;2.70;99.90;;;;;;5052723;28;19912;-75
2021/01/24 03:37:25;;;;;;;;;;;2.70;99.90;;;;;;5053483;28;19913;-76
2021/01/24 03:39:51;;;;;;;;;;;2.70;99.90;;;;;;5053746;28;19913;-75
2021/01/24 03:42:17;;;;;;;;;;;2.70;99.90;;;;;;5053666;28;19913;-75
2021/01/24 03:44:43;;;;;;;;;;;2.60;99.90;;;;;;5053081;28;19978;-75
2021/01/24 03:47:11;;;;;;;;;;;2.60;99.90;;;;;;5053652;28;19936;-75
2021/01/24 03:49:37;;;;;;;;;;;2.50;99.90;;;;;;5053445;28;20365;-75
2021/01/24 03:52:04;;;;;;;;;;;2.50;99.90;;;;;;5052973;28;19915;-75
2021/01/24 03:54:29;;;;;;;;;;;2.50;99.90;;;;;;5053468;28;19913;-75
2021/01/24 03:56:55;;;;;;;;;;;2.50;99.90;;;;;;5053350;28;19920;-75
2021/01/24 03:59:21;;;;;;;;;;;2.40;99.90;;;;;;5052415;28;19905;-76
2021/01/24 04:01:47;;;;;;;;;;;2.40;99.90;;;;;;5053257;28;19935;-75
2021/01/24 04:04:13;;;;;;;;;;;2.40;99.90;;;;;;5053994;28;20527;-75
2021/01/24 04:06:39;;;;;;;;;;;2.40;99.90;;;;;;5052629;28;19963;-75
2021/01/24 04:09:05;;;;;;;;;;;2.40;99.90;;;;;;5053270;28;19928;-75
2021/01/24 04:11:31;;;;;;;;;;;2.40;99.90;;;;;;5052873;28;19962;-75
2021/01/24 04:13:57;;;;;;;;;;;2.40;99.90;;;;;;5053360;28;19917;-75
2021/01/24 04:16:23;;;;;;;;;;;2.40;99.90;;;;;;5053187;28;19959;-75
2021/01/24 04:18:49;;;;;;;;;;;2.30;99.90;;;;;;5053013;28;19909;-75
2021/01/24 04:21:15;;;;;;;;;;;2.30;99.90;;;;;;5052834;28;19913;-75
2021/01/24 04:23:41;;;;;;;;;;;2.30;99.90;;;;;;5053058;28;20277;-75
2021/01/24 04:26:07;;;;;;;;;;;2.30;99.90;;;;;;5053350;28;19912;-76
2021/01/24 04:28:32;;;;;;;;;;;2.30;99.90;;;;;;5052506;28;19920;-75
2021/01/24 04:30:58;;;;;;;;;;;2.20;99.90;;;;;;5052994;28;19956;-75
2021/01/24 04:33:24;;;;;;;;;;;2.20;99.90;;;;;;5051466;28;19958;-75
2021/01/24 04:35:50;;;;;;;;;;;2.20;99.90;;;;;;5050987;28;19920;-75
2021/01/24 04:38:16;;;;;;;;;;;2.20;99.90;;;;;;5051579;28;19913;-75
2021/01/24 04:40:42;;;;;;;;;;;2.20;99.90;;;;;;5051070;28;19986;-75
2021/01/24 04:43:08;;;;;;;;;;;2.20;99.90;;;;;;5052606;28;19920;-75
2021/01/24 04:45:34;;;;;;;;;;;2.20;99.90;;;;;;5050945;28;19909;-75
2021/01/24 04:48:00;;;;;;;;;;;2.20;99.90;;;;;;5052630;28;19908;-75
2021/01/24 04:50:26;;;;;;;;;;;2.20;99.90;;;;;;5052550;28;19912;-75
2021/01/24 04:52:52;;;;;;;;;;;2.20;99.90;;;;;;5052121;28;19916;-75
2021/01/24 04:55:18;;;;;;;;;;;2.20;99.90;;;;;;5051651;28;20368;-75
2021/01/24 04:57:45;;;;;;;;;;;2.10;99.90;;;;;;5051288;28;19919;-75
2021/01/24 05:00:11;;;;;;;;;;;2.10;99.90;;;;;;5034280;28;19917;-75
2021/01/24 05:02:37;;;;;;;;;;;2.10;99.90;;;;;;5051999;28;19913;-75
2021/01/24 05:05:03;;;;;;;;;;;2.10;99.90;;;;;;5032889;28;20419;-76
2021/01/24 05:07:29;;;;;;;;;;;2.10;99.90;;;;;;5050873;28;20357;-75
2021/01/24 05:09:56;;;;;;;;;;;2.10;99.90;;;;;;5052006;28;19921;-75
2021/01/24 05:12:22;;;;;;;;;;;2.10;99.90;;;;;;5052318;28;19919;-75
2021/01/24 05:14:48;;;;;;;;;;;2.10;99.90;;;;;;5052080;28;20285;-75
2021/01/24 05:17:14;;;;;;;;;;;2.10;99.90;;;;;;5050683;28;20354;-75
2021/01/24 05:19:40;;;;;;;;;;;2.10;99.90;;;;;;5052056;28;19946;-76
2021/01/24 05:22:06;;;;;;;;;;;2.10;99.90;;;;;;5051176;28;20368;-75
2021/01/24 05:24:33;;;;;;;;;;;2.10;99.90;;;;;;5052405;28;19912;-75
2021/01/24 05:27:09;;;;;;;;;;;2.10;99.90;;;;;;5051211;28;19908;-75
2021/01/24 05:29:36;;;;;;;;;;;2.10;99.90;;;;;;5051823;28;19921;-75
2021/01/24 05:32:02;;;;;;;;;;;2.10;99.90;;;;;;5052385;28;19916;-75
2021/01/24 05:34:28;;;;;;;;;;;2.10;99.90;;;;;;5052015;28;19909;-75
2021/01/24 05:36:57;;;;;;;;;;;2.10;99.90;;;;;;5052053;28;19917;-75
2021/01/24 05:39:23;;;;;;;;;;;2.10;99.90;;;;;;5052215;28;19908;-75
2021/01/24 05:41:50;;;;;;;;;;;2.10;99.90;;;;;;5051803;28;19920;-75
2021/01/24 05:44:16;;;;;;;;;;;2.10;99.90;;;;;;5051804;28;19908;-75
2021/01/24 05:46:42;;;;;;;;;;;2.10;99.90;;;;;;5050524;28;20317;-75
2021/01/24 05:49:08;;;;;;;;;;;2.10;99.90;;;;;;5052038;28;19927;-75
2021/01/24 05:51:34;;;;;;;;;;;2.10;99.90;;;;;;5050503;28;19916;-75
2021/01/24 05:54:00;;;;;;;;;;;2.10;99.90;;;;;;5050531;28;19919;-75
2021/01/24 05:56:26;;;;;;;;;;;2.10;99.90;;;;;;5052113;28;20281;-75
2021/01/24 05:58:53;;;;;;;;;;;2.10;99.90;;;;;;5051124;28;19943;-75
2021/01/24 06:01:19;;;;;;;;;;;2.10;99.90;;;;;;5052043;28;19913;-74
2021/01/24 06:03:45;;;;;;;;;;;2.10;99.90;;;;;;5051997;28;19912;-75
2021/01/24 06:06:11;;;;;;;;;;;2.10;99.90;;;;;;5050375;28;19913;-75
2021/01/24 06:08:36;;;;;;;;;;;2.10;99.90;;;;;;5051834;28;19920;-75
2021/01/24 06:11:02;;;;;;;;;;;2.10;99.90;;;;;;5051606;28;19920;-75
2021/01/24 06:13:29;;;;;;;;;;;2.10;99.90;;;;;;5050015;28;19908;-75
2021/01/24 06:15:57;;;;;;;;;;;2.10;99.90;;;;;;5051325;28;19909;-75
2021/01/24 06:18:24;;;;;;;;;;;2.00;99.90;;;;;;5054312;28;19909;-75
2021/01/24 06:21:00;;;;;;;;;;;2.00;99.90;;;;;;5053654;28;19916;-75
2021/01/24 06:23:28;;;;;;;;;;;2.00;99.90;;;;;;5046668;28;19917;-75
2021/01/24 06:25:54;;;;;;;;;;;2.00;99.90;;;;;;5053073;28;19941;-75
2021/01/24 06:28:21;;;;;;;;;;;1.90;99.90;;;;;;5054429;28;19992;-76
2021/01/24 06:30:46;;;;;;;;;;;1.90;99.90;;;;;;5054301;28;19916;-76
2021/01/24 06:33:16;;;;;;;;;;;1.90;99.90;;;;;;5054347;28;20249;-75
2021/01/24 06:35:46;;;;;;;;;;;1.90;99.90;;;;;;5037368;28;20372;-77
2021/01/24 06:38:25;;;;;;;;;;;1.90;99.90;;;;;;5054456;28;19904;-74
2021/01/24 06:40:51;;;;;;;;;;;1.90;99.90;;;;;;5054767;28;19912;-75
2021/01/24 06:43:30;;;;;;;;;;;1.90;99.90;;;;;;5054856;28;19913;-75
2021/01/24 06:45:56;;;;;;;;;;;1.90;99.90;;;;;;5047193;28;19908;-75
2021/01/24 06:48:22;;;;;;;;;;;1.90;99.90;;;;;;5053705;28;19963;-74
2021/01/24 06:50:48;;;;;;;;;;;1.90;99.90;;;;;;5053033;28;19913;-75
2021/01/24 06:53:23;;;;;;;;;;;1.90;99.90;;;;;;5055314;28;19909;-74
2021/01/24 06:55:56;;;;;;;;;;;1.90;99.90;;;;;;5054585;28;20389;-75
2021/01/24 06:58:22;;;;;;;;;;;1.90;99.90;;;;;;5053815;28;19908;-75
2021/01/24 07:00:48;;;;;;;;;;;1.80;99.90;;;;;;5053570;28;19940;-75
2021/01/24 07:03:18;;;;;;;;;;;1.80;99.90;;;;;;5053888;28;19905;-75
2021/01/24 07:05:44;;;;;;;;;;;1.80;99.90;;;;;;5054694;28;19909;-75
2021/01/24 07:08:29;;;;;;;;;;;1.80;99.90;;;;;;5054904;28;19908;-75
2021/01/24 07:10:55;;;;;;;;;;;1.80;99.90;;;;;;5054324;28;19924;-75
2021/01/24 07:13:30;;;;;;;;;;;1.80;99.90;;;;;;5052940;28;19920;-75
2021/01/24 07:15:57;;;;;;;;;;;1.80;99.90;;;;;;5053264;28;20293;-75
2021/01/24 07:18:23;;;;;;;;;;;1.80;99.90;;;;;;5053593;28;19904;-75
2021/01/24 07:20:49;;;;;;;;;;;1.90;99.90;;;;;;5052568;28;19909;-76
2021/01/24 07:23:15;;;;;;;;;;;1.90;99.90;;;;;;5053364;28;19908;-75
2021/01/24 07:25:41;;;;;;;;;;;1.90;99.90;;;;;;5053000;28;19917;-76
2021/01/24 07:28:07;;;;;;;;;;;1.90;99.90;;;;;;5053229;28;19943;-76
2021/01/24 07:30:33;;;;;;;;;;;1.90;99.90;;;;;;5053115;28;19924;-76
2021/01/24 07:32:59;;;;;;;;;;;1.90;99.90;;;;;;5036036;28;19915;-76
2021/01/24 07:35:25;;;;;;;;;;;1.90;99.90;;;;;;5036527;28;20300;-75
2021/01/24 07:37:51;;;;;;;;;;;1.90;99.90;;;;;;5052877;28;19935;-75
2021/01/24 07:40:18;;;;;;;;;;;1.90;99.90;;;;;;5053899;28;19904;-75
2021/01/24 07:42:45;;;;;;;;;;;1.90;99.90;;;;;;5052443;28;19909;-75
2021/01/24 07:45:11;;;;;;;;;;;1.90;99.90;;;;;;5052835;28;19904;-75
2021/01/24 07:47:37;;;;;;;;;;;1.80;99.90;;;;;;5053397;28;19920;-75
2021/01/24 07:50:03;;;;;;;;;;;1.80;99.90;;;;;;5052685;28;20285;-75
2021/01/24 07:52:29;;;;;;;;;;;1.80;99.90;;;;;;5053906;28;20392;-76
2021/01/24 07:54:55;;;;;;;;;;;1.90;99.90;;;;;;5053060;28;19920;-76
2021/01/24 07:57:21;;;;;;;;;;;1.90;99.90;;;;;;5052314;28;19923;-76
2021/01/24 07:59:47;;;;;;;;;;;1.90;99.90;;;;;;5052511;28;19905;-76
2021/01/24 08:02:13;;;;;;;;;;;1.90;99.90;;;;;;5052683;28;19909;-76
2021/01/24 08:04:39;;;;;;;;;;;1.90;99.90;;;;;;5052559;28;19904;-76
2021/01/24 08:07:08;;;;;;;;;;;1.90;99.90;;;;;;5053187;28;20000;-76
2021/01/24 08:09:34;;;;;;;;;;;1.90;99.90;;;;;;5052207;28;19943;-75
2021/01/24 08:12:05;;;;;;;;;;;1.90;99.90;;;;;;5051003;28;19913;-75
2021/01/24 08:14:31;;;;;;;;;;;1.90;99.90;;;;;;5053618;28;19909;-75
2021/01/24 08:16:57;;;;;;;;;;;1.90;99.90;;;;;;5048035;28;19986;-75
2021/01/24 08:19:23;;;;;;;;;;;1.90;99.90;;;;;;5055053;28;19932;-76
2021/01/24 08:21:50;;;;;;;;;;;1.90;99.90;;;;;;5051409;28;20369;-75
2021/01/24 08:24:16;;;;;;;;;;;2.00;99.90;;;;;;5051615;28;19913;-76
2021/01/24 08:26:42;;;;;;;;;;;2.00;99.90;;;;;;5053760;28;20380;-76
2021/01/24 08:29:07;;;;;;;;;;;2.00;99.90;;;;;;5051365;28;20377;-75
2021/01/24 08:31:34;;;;;;;;;;;2.00;99.90;;;;;;5048781;28;19967;-76
2021/01/24 08:34:00;;;;;;;;;;;2.00;99.90;;;;;;5046654;28;19916;-75
2021/01/24 08:36:26;;;;;;;;;;;2.10;99.90;;;;;;5056036;28;19914;-75
2021/01/24 08:38:56;;;;;;;;;;;2.10;99.90;;;;;;5045344;28;19920;-75
2021/01/24 08:41:32;;;;;;;;;;;2.10;99.90;;;;;;5051847;28;19946;-75
2021/01/24 08:44:01;;;;;;;;;;;2.10;99.90;;;;;;5052476;28;20290;-73
2021/01/24 08:46:27;;;;;;;;;;;2.10;99.90;;;;;;5052336;28;19916;-75
2021/01/24 08:49:03;;;;;;;;;;;2.20;99.90;;;;;;5050361;28;19917;-75
2021/01/24 08:51:39;;;;;;;;;;;2.20;99.90;;;;;;5050858;28;19916;-75
2021/01/24 08:54:13;;;;;;;;;;;2.20;99.90;;;;;;5050000;28;19912;-74
2021/01/24 08:56:39;;;;;;;;;;;2.20;99.90;;;;;;5049974;28;20396;-75
2021/01/24 08:59:24;;;;;;;;;;;2.20;99.90;;;;;;5050254;28;19909;-75
2021/01/24 09:01:53;;;;;;;;;;;2.20;99.90;;;;;;5050127;28;19913;-75
2021/01/24 09:04:20;;;;;;;;;;;2.20;99.90;;;;;;5050545;28;20545;-75
2021/01/24 09:07:05;;;;;;;;;;;2.20;99.90;;;;;;5052003;28;20381;-75
2021/01/24 09:09:32;;;;;;;;;;;2.20;99.90;;;;;;5049450;28;19921;-75
2021/01/24 09:11:58;;;;;;;;;;;2.20;99.90;;;;;;5049525;28;19909;-75
2021/01/24 09:14:24;;;;;;;;;;;2.20;99.90;;;;;;5054527;28;20276;-75
2021/01/24 09:17:00;;;;;;;;;;;2.30;99.90;;;;;;5052056;28;20007;-75
2021/01/24 09:19:26;;;;;;;;;;;2.20;99.90;;;;;;5051064;28;19909;-75
2021/01/24 09:21:52;;;;;;;;;;;2.30;99.90;;;;;;5058502;28;19917;-75
2021/01/24 09:24:18;;;;;;;;;;;2.30;99.90;;;;;;5050742;28;19913;-75
2021/01/24 09:26:44;;;;;;;;;;;2.30;99.90;;;;;;5039088;28;19920;-74
2021/01/24 09:29:10;;;;;;;;;;;2.30;99.90;;;;;;5056975;28;19921;-74
2021/01/24 09:31:36;;;;;;;;;;;2.30;99.90;;;;;;5053916;28;19908;-75
2021/01/24 09:34:02;;;;;;;;;;;2.30;99.90;;;;;;5051816;28;20365;-75
2021/01/24 09:36:28;;;;;;;;;;;2.30;99.90;;;;;;5051318;28;19913;-75
2021/01/24 09:38:54;;;;;;;;;;;2.30;99.90;;;;;;5051085;28;19912;-74
2021/01/24 09:41:20;;;;;;;;;;;2.30;99.90;;;;;;5051114;28;19928;-75
2021/01/24 09:43:46;;;;;;;;;;;2.30;99.90;;;;;;5051715;28;19967;-75
2021/01/24 09:46:12;;;;;;;;;;;2.30;99.90;;;;;;5051627;28;19917;-75
2021/01/24 09:48:38;;;;;;;;;;;2.30;99.90;;;;;;5051934;28;19959;-74
2021/01/24 09:51:08;;;;;;;;;;;2.30;99.90;;;;;;5051737;28;19917;-74
2021/01/24 09:53:36;;;;;;;;;;;2.40;99.90;;;;;;5058205;28;19920;-74
2021/01/24 09:56:05;;;;;;;;;;;2.40;99.90;;;;;;5062474;28;19927;-74
2021/01/24 09:58:32;;;;;;;;;;;2.40;99.90;;;;;;5055407;28;20372;-74
2021/01/24 10:00:57;;;;;;;;;;;2.40;99.90;;;;;;5060436;28;19912;-74
2021/01/24 10:03:23;;;;;;;;;;;2.40;99.90;;;;;;5054001;28;21180;-75
2021/01/24 10:05:50;;;;;;;;;;;2.40;99.90;;;;;;5052693;28;19912;-75
2021/01/24 10:08:16;;;;;;;;;;;2.40;99.90;;;;;;5055308;28;19924;-74
2021/01/24 10:10:42;;;;;;;;;;;2.40;99.90;;;;;;5054440;28;19931;-75
2021/01/24 10:13:08;;;;;;;;;;;2.40;99.90;;;;;;5053974;28;19909;-74
2021/01/24 10:15:34;;;;;;;;;;;2.50;99.90;;;;;;5053987;28;20016;-71
2021/01/24 10:17:59;;;;;;;;;;;2.50;99.90;;;;;;5055431;28;19921;-81
2021/01/24 10:20:25;;;;;;;;;;;2.50;99.90;;;;;;5037912;28;20288;-76
2021/01/24 10:22:52;;;;;;;;;;;2.50;99.90;;;;;;5059170;28;20385;-78
2021/01/24 10:25:18;;;;;;;;;;;2.50;99.90;;;;;;5060200;28;19912;-75
2021/01/24 10:27:44;;;;;;;;;;;2.50;99.90;;;;;;5049088;28;20297;-77
2021/01/24 10:30:10;;;;;;;;;;;2.60;99.90;;;;;;5031808;28;19917;-78
2021/01/24 10:32:39;;;;;;;;;;;2.60;99.90;;;;;;5053924;28;19905;-75
2021/01/24 10:35:05;;;;;;;;;;;2.60;99.90;;;;;;5054575;28;20277;-75
2021/01/24 10:37:31;;;;;;;;;;;2.60;99.90;;;;;;5053966;28;19909;-77
2021/01/24 10:39:57;;;;;;;;;;;2.60;99.90;;;;;;5054980;28;19967;-73
2021/01/24 10:42:23;;;;;;;;;;;2.60;99.90;;;;;;5054445;28;19915;-74
2021/01/24 10:44:49;;;;;;;;;;;2.60;99.90;;;;;;5054199;28;19999;-70
2021/01/24 10:47:15;;;;;;;;;;;2.60;99.90;;;;;;5055309;28;19928;-71
2021/01/24 10:49:41;;;;;;;;;;;2.60;99.90;;;;;;5056347;28;19928;-71
2021/01/24 10:52:07;;;;;;;;;;;2.60;99.90;;;;;;5054586;28;20366;-71
2021/01/24 10:54:36;;;;;;;;;;;2.70;99.90;;;;;;5054303;28;19913;-71
2021/01/24 10:57:02;;;;;;;;;;;2.70;99.90;;;;;;5053442;28;19920;-72
2021/01/24 10:59:28;;;;;;;;;;;2.70;99.90;;;;;;5053305;28;19916;-71
2021/01/24 11:01:54;;;;;;;;;;;2.70;99.90;;;;;;5052951;28;19912;-72
2021/01/24 11:04:20;;;;;;;;;;;2.80;99.90;;;;;;5052608;28;19932;-71
2021/01/24 11:06:46;;;;;;;;;;;2.80;99.90;;;;;;5046849;28;19913;-71
2021/01/24 11:09:12;;;;;;;;;;;2.80;99.90;;;;;;5053871;28;19916;-71
2021/01/24 11:11:38;;;;;;;;;;;2.80;99.90;;;;;;5053941;28;20285;-71
2021/01/24 11:14:04;;;;;;;;;;;2.80;99.90;;;;;;5054225;28;19913;-71
2021/01/24 11:16:30;;;;;;;;;;;2.80;99.90;;;;;;5052986;28;19912;-71
2021/01/24 11:18:56;;;;;;;;;;;2.80;99.90;;;;;;5054037;28;19913;-71
2021/01/24 11:21:22;;;;;;;;;;;2.80;99.90;;;;;;5054381;28;20381;-71
2021/01/24 11:23:48;;;;;;;;;;;2.80;99.90;;;;;;5054306;28;19944;-72
2021/01/24 11:26:14;;;;;;;;;;;2.90;99.90;;;;;;5052691;28;19916;-71
2021/01/24 11:28:40;;;;;;;;;;;2.80;99.90;;;;;;5053105;28;19920;-71
2021/01/24 11:31:05;;;;;;;;;;;2.90;99.90;;;;;;5054379;28;19921;-72
2021/01/24 11:33:31;;;;;;;;;;;2.80;99.90;;;;;;5054637;28;19919;-74
2021/01/24 11:35:57;;;;;;;;;;;2.90;99.90;;;;;;5055761;28;19912;-74
2021/01/24 11:38:23;;;;;;;;;;;2.90;99.90;;;;;;5051920;28;20385;-70
2021/01/24 11:40:49;;;;;;;;;;;2.90;99.90;;;;;;5051321;28;19970;-71
2021/01/24 11:43:16;;;;;;;;;;;2.90;99.90;;;;;;5048445;28;19912;-70
2021/01/24 11:45:41;;;;;;;;;;;2.90;99.90;;;;;;5051995;28;19909;-70
2021/01/24 11:48:08;;;;;;;;;;;2.90;99.90;;;;;;5051540;28;20368;-71
2021/01/24 11:50:33;;;;;;;;;;;2.90;99.90;;;;;;5051813;28;19916;-70
2021/01/24 11:52:59;;;;;;;;;;;2.90;99.90;;;;;;5051793;28;19905;-70
2021/01/24 11:55:25;;;;;;;;;;;2.90;99.90;;;;;;5053964;28;20333;-70
2021/01/24 11:57:51;;;;;;;;;;;2.90;99.90;;;;;;5053583;28;19908;-70
2021/01/24 12:00:17;;;;;;;;;;;2.80;99.90;;;;;;5052901;28;19929;-71
2021/01/24 12:02:43;;;;;;;;;;;2.80;99.90;;;;;;5051880;28;19909;-71
2021/01/24 12:05:09;;;;;;;;;;;2.80;99.90;;;;;;5053522;28;19916;-71
2021/01/24 12:07:35;;;;;;;;;;;2.90;99.90;;;;;;5053908;28;19905;-71
2021/01/24 12:10:02;;;;;;;;;;;2.90;99.90;;;;;;5052307;28;19919;-71
2021/01/24 12:12:28;;;;;;;;;;;2.90;99.90;;;;;;5053518;28;19912;-70
2021/01/24 12:14:54;;;;;;;;;;;2.90;99.90;;;;;;5053255;28;20678;-70
2021/01/24 12:17:24;;;;;;;;;;;2.90;99.90;;;;;;5053519;28;20382;-71
2021/01/24 12:19:50;;;;;;;;;;;2.90;99.90;;;;;;5053722;28;19909;-71
2021/01/24 12:22:16;;;;;;;;;;;2.90;99.90;;;;;;5053398;28;19909;-71
2021/01/24 12:24:42;;;;;;;;;;;2.90;99.90;;;;;;5054165;28;20297;-71
2021/01/24 12:27:08;;;;;;;;;;;2.90;99.90;;;;;;5052918;28;19909;-70
2021/01/24 12:29:34;;;;;;;;;;;3.00;99.90;;;;;;5053066;28;20034;-70
2021/01/24 12:32:00;;;;;;;;;;;3.00;99.90;;;;;;5053148;28;19909;-71
2021/01/24 12:34:26;;;;;;;;;;;3.00;99.90;;;;;;5053338;28;19915;-71
2021/01/24 12:36:52;;;;;;;;;;;3.00;99.90;;;;;;5053343;28;19909;-71
2021/01/24 12:39:18;;;;;;;;;;;3.00;99.90;;;;;;5053086;28;19909;-70
2021/01/24 12:41:43;;;;;;;;;;;3.00;99.90;;;;;;5053246;28;19908;-70
2021/01/24 12:44:09;;;;;;;;;;;3.00;99.90;;;;;;5052900;28;19909;-71
2021/01/24 12:46:35;;;;;;;;;;;3.00;99.90;;;;;;5053249;28;19943;-71
2021/01/24 12:49:01;;;;;;;;;;;3.00;99.90;;;;;;5053324;28;19978;-71
2021/01/24 12:51:27;;;;;;;;;;;3.00;99.90;;;;;;5052905;28;19912;-71
2021/01/24 12:53:53;;;;;;;;;;;3.00;99.90;;;;;;5053045;28;20357;-70
2021/01/24 12:56:19;;;;;;;;;;;3.00;99.90;;;;;;5053361;28;19913;-71
2021/01/24 12:58:45;;;;;;;;;;;3.00;99.90;;;;;;5051292;28;19916;-71
2021/01/24 13:01:12;;;;;;;;;;;2.90;99.90;;;;;;5052888;28;19908;-70
2021/01/24 13:03:39;;;;;;;;;;;3.00;99.90;;;;;;5052839;28;20401;-71
2021/01/24 13:06:05;;;;;;;;;;;3.00;99.90;;;;;;5052020;28;19913;-71
2021/01/24 13:08:31;;;;;;;;;;;3.00;99.90;;;;;;5053163;28;19911;-71
2021/01/24 13:10:57;;;;;;;;;;;3.00;99.90;;;;;;5052836;28;19923;-71
2021/01/24 13:13:23;;;;;;;;;;;3.00;99.90;;;;;;5052320;28;19909;-71
2021/01/24 13:15:49;;;;;;;;;;;3.10;99.90;;;;;;5034904;28;19908;-71
2021/01/24 13:18:15;;;;;;;;;;;3.10;99.90;;;;;;5052590;28;20357;-71
2021/01/24 13:20:41;;;;;;;;;;;3.10;99.90;;;;;;5052829;28;19908;-71
2021/01/24 13:23:08;;;;;;;;;;;3.00;99.90;;;;;;5052699;28;19905;-70
2021/01/24 13:25:34;;;;;;;;;;;3.10;99.90;;;;;;5053501;28;19908;-70
2021/01/24 13:28:00;;;;;;;;;;;3.10;99.90;;;;;;5055457;28;19920;-71
2021/01/24 13:30:25;;;;;;;;;;;3.10;99.90;;;;;;5056357;28;20453;-71
2021/01/24 13:32:51;;;;;;;;;;;3.10;99.90;;;;;;5056911;28;19915;-71
2021/01/24 13:35:17;;;;;;;;;;;3.10;99.90;;;;;;5056443;28;19915;-71
2021/01/24 13:37:43;;;;;;;;;;;3.10;99.90;;;;;;5056770;28;19917;-71
2021/01/24 13:40:10;;;;;;;;;;;3.10;99.90;;;;;;5056562;28;19968;-71
2021/01/24 13:42:35;;;;;;;;;;;3.10;99.90;;;;;;5056157;28;19908;-71
2021/01/24 13:45:02;;;;;;;;;;;3.10;99.90;;;;;;5056425;28;19915;-71
2021/01/24 13:47:27;;;;;;;;;;;3.10;99.90;;;;;;5055358;28;19920;-71
2021/01/24 13:49:53;;;;;;;;;;;3.10;99.90;;;;;;5054907;28;20365;-71
2021/01/24 13:52:19;;;;;;;;;;;3.10;99.90;;;;;;5056353;28;20353;-71
2021/01/24 13:54:46;;;;;;;;;;;3.10;99.90;;;;;;5055193;28;20353;-71
2021/01/24 13:57:12;;;;;;;;;;;3.10;99.90;;;;;;5056112;28;19935;-71
2021/01/24 13:59:38;;;;;;;;;;;3.10;99.90;;;;;;5055167;28;20255;-71
2021/01/24 14:02:04;;;;;;;;;;;3.10;99.90;;;;;;5055171;28;19916;-71
2021/01/24 14:04:30;;;;;;;;;;;3.10;99.90;;;;;;5055181;28;19908;-71
2021/01/24 14:06:55;;;;;;;;;;;3.10;99.90;;;;;;5055612;28;19909;-71
2021/01/24 14:09:21;;;;;;;;;;;3.20;99.90;;;;;;5055400;28;20361;-71
2021/01/24 14:11:47;;;;;;;;;;;3.20;99.90;;;;;;5054679;28;20613;-71
2021/01/24 14:14:15;;;;;;;;;;;3.20;99.90;;;;;;5054904;28;19909;-71
2021/01/24 14:16:40;;;;;;;;;;;3.20;99.90;;;;;;5056141;28;20376;-71
2021/01/24 14:19:06;;;;;;;;;;;3.20;99.90;;;;;;5055742;28;19909;-71
2021/01/24 14:21:32;;;;;;;;;;;3.20;99.90;;;;;;5054967;28;19935;-71
2021/01/24 14:23:58;;;;;;;;;;;3.20;99.90;;;;;;5054773;28;19916;-71
2021/01/24 14:26:24;;;;;;;;;;;3.20;99.90;;;;;;5055610;28;20503;-71
2021/01/24 14:28:50;;;;;;;;;;;3.20;99.90;;;;;;5056229;28;19909;-72